Arnaudville, Louisiana
Current Conditions -  °F | °C
As of 9:53 AM on Wednesday 22 Oct 2014 (Local Time) from KLFT Reporting Station
Clear Clear  
Wind Chill: 70°   Ceiling: Unl
Heat Index: 70°   Visibility: 10mi
Dew Point: 59°   Wind: 6mph
Humidity: 68%   Direction: 60°ENE
Pressure: 30.11"   Gusts: NA
Location:  30.4°N, 91.93°W
Report Text: KLFT 221453Z 06005KT 10SM CLR 21/15 A3011 RMK AO2 SLP196 T02110150 53016
Loading
Personal Weather Stations






























Interactive Weather Map
Tropical Storm Tracking
New forecast layout! Learn more

10-Day Weather Forecast

Advertisements
Track Severe Weather on mobile